Accueil
METAR-TAF:

METAR-TAF

Aéroports :

Quakertown Airport

Quakertown, Pennsylvanie, États-Unis

latitude: 40-26-06N, longitude: 075-22-54W, altitude: 160 m

Observation

Le bulletin a été fait il y a 11 minutes, à 07:35 UTC
Vent calme
Température 15°C
Humidité 88%
Pression 1007 hPa
Visibilité: 16.1 km
Quelques nuages à une hauteur de 6000 ft
Nuages épars à une hauteur de 7000 ft
Nuages épars à une hauteur de 7500 ft

METAR: KUKT 030735Z AUTO 00000KT 10SM FEW060 SCT070 SCT075 15/13 A2973 RMK A01

Heure: 03:46 (07:46 UTC)


TAF: absent

Observations et prévisions météorologiques de plus de 4000 aéroports (messages METAR et TAF).

Les stations disponibles sont représentées par des disques jaunes et rouges sur la carte.

Passer la souris dessus pour voir le nom de la station.

Cliquer dessus pour voir les observations et prévisions météorologiques.

Pour changer de carte: cliquez sur les boutons verts avec une croix noire pour zoomer, sur le bouton vert avec un tiret pour effectuer un zoom arrière, ou sur les flèches vertes pour les cartes adjacentes.


METAR-TAF: